sensor_id;sensor_type;location;lat;lon;timestamp;temperature;humidity
66861;SHT31;53770;42.334;23.550;2022-08-01T00:01:07;17.55;64.86
66861;SHT31;53770;42.334;23.550;2022-08-01T00:03:34;17.59;65.04
66861;SHT31;53770;42.334;23.550;2022-08-01T00:06:01;17.55;63.67
66861;SHT31;53770;42.334;23.550;2022-08-01T00:08:28;17.45;64.19
66861;SHT31;53770;42.334;23.550;2022-08-01T00:10:55;17.42;63.50
66861;SHT31;53770;42.334;23.550;2022-08-01T00:13:23;17.35;63.44
66861;SHT31;53770;42.334;23.550;2022-08-01T00:15:49;17.30;63.63
66861;SHT31;53770;42.334;23.550;2022-08-01T00:18:16;17.28;64.49
66861;SHT31;53770;42.334;23.550;2022-08-01T00:20:43;17.25;64.10
66861;SHT31;53770;42.334;23.550;2022-08-01T00:23:10;17.20;64.05
66861;SHT31;53770;42.334;23.550;2022-08-01T00:25:37;17.18;64.24
66861;SHT31;53770;42.334;23.550;2022-08-01T00:28:04;17.11;63.92
66861;SHT31;53770;42.334;23.550;2022-08-01T00:30:35;17.03;64.87
66861;SHT31;53770;42.334;23.550;2022-08-01T00:33:02;17.04;64.12
66861;SHT31;53770;42.334;23.550;2022-08-01T00:35:29;17.03;64.45
66861;SHT31;53770;42.334;23.550;2022-08-01T00:37:56;17.06;64.39
66861;SHT31;53770;42.334;23.550;2022-08-01T00:40:22;17.06;64.55
66861;SHT31;53770;42.334;23.550;2022-08-01T00:42:49;17.06;64.46
66861;SHT31;53770;42.334;23.550;2022-08-01T00:45:16;17.06;64.40
66861;SHT31;53770;42.334;23.550;2022-08-01T00:47:44;17.04;63.59
66861;SHT31;53770;42.334;23.550;2022-08-01T00:50:11;16.94;63.83
66861;SHT31;53770;42.334;23.550;2022-08-01T00:52:39;16.87;64.31
66861;SHT31;53770;42.334;23.550;2022-08-01T00:55:08;16.90;63.89
66861;SHT31;53770;42.334;23.550;2022-08-01T00:57:34;16.81;63.96
66861;SHT31;53770;42.334;23.550;2022-08-01T01:00:02;16.81;63.66
66861;SHT31;53770;42.334;23.550;2022-08-01T01:02:30;16.81;63.80
66861;SHT31;53770;42.334;23.550;2022-08-01T01:04:58;16.81;63.77
66861;SHT31;53770;42.334;23.550;2022-08-01T01:07:44;16.79;63.75
66861;SHT31;53770;42.334;23.550;2022-08-01T01:10:17;16.79;63.72
66861;SHT31;53770;42.334;23.550;2022-08-01T01:12:51;16.77;63.45
66861;SHT31;53770;42.334;23.550;2022-08-01T01:15:26;16.75;63.25
66861;SHT31;53770;42.334;23.550;2022-08-01T01:17:56;16.69;63.34
66861;SHT31;53770;42.334;23.550;2022-08-01T01:20:28;16.65;63.47
66861;SHT31;53770;42.334;23.550;2022-08-01T01:23:24;16.68;64.18
66861;SHT31;53770;42.334;23.550;2022-08-01T01:26:14;16.66;64.49
66861;SHT31;53770;42.334;23.550;2022-08-01T01:29:03;16.49;64.08
66861;SHT31;53770;42.334;23.550;2022-08-01T01:31:33;16.18;65.61
66861;SHT31;53770;42.334;23.550;2022-08-01T01:34:03;15.98;65.53
66861;SHT31;53770;42.334;23.550;2022-08-01T01:36:31;15.94;66.10
66861;SHT31;53770;42.334;23.550;2022-08-01T01:39:00;15.90;66.12
66861;SHT31;53770;42.334;23.550;2022-08-01T01:41:27;15.98;66.64
66861;SHT31;53770;42.334;23.550;2022-08-01T01:43:57;15.94;66.24
66861;SHT31;53770;42.334;23.550;2022-08-01T01:46:25;15.86;66.09
66861;SHT31;53770;42.334;23.550;2022-08-01T01:48:55;15.73;66.68
66861;SHT31;53770;42.334;23.550;2022-08-01T01:51:24;15.77;67.18
66861;SHT31;53770;42.334;23.550;2022-08-01T01:53:52;15.71;67.55
66861;SHT31;53770;42.334;23.550;2022-08-01T01:56:20;15.69;67.21
66861;SHT31;53770;42.334;23.550;2022-08-01T01:58:49;15.60;66.22
66861;SHT31;53770;42.334;23.550;2022-08-01T02:01:18;15.53;67.07
66861;SHT31;53770;42.334;23.550;2022-08-01T02:03:46;15.56;66.57
66861;SHT31;53770;42.334;23.550;2022-08-01T02:06:14;15.46;66.54
66861;SHT31;53770;42.334;23.550;2022-08-01T02:08:42;15.36;67.67
66861;SHT31;53770;42.334;23.550;2022-08-01T02:11:10;15.42;67.44
66861;SHT31;53770;42.334;23.550;2022-08-01T02:13:49;15.39;67.12
66861;SHT31;53770;42.334;23.550;2022-08-01T02:16:21;15.42;67.39
66861;SHT31;53770;42.334;23.550;2022-08-01T02:18:49;15.50;67.16
66861;SHT31;53770;42.334;23.550;2022-08-01T02:21:23;15.52;66.69
66861;SHT31;53770;42.334;23.550;2022-08-01T02:23:51;15.49;66.70
66861;SHT31;53770;42.334;23.550;2022-08-01T02:26:19;15.49;66.37
66861;SHT31;53770;42.334;23.550;2022-08-01T02:28:52;15.28;66.78
66861;SHT31;53770;42.334;23.550;2022-08-01T02:31:24;15.17;67.02
66861;SHT31;53770;42.334;23.550;2022-08-01T02:33:56;15.08;67.15
66861;SHT31;53770;42.334;23.550;2022-08-01T02:36:25;15.04;67.41
66861;SHT31;53770;42.334;23.550;2022-08-01T02:38:54;15.08;67.05
66861;SHT31;53770;42.334;23.550;2022-08-01T02:41:24;15.18;66.62
66861;SHT31;53770;42.334;23.550;2022-08-01T02:43:53;15.14;66.41
66861;SHT31;53770;42.334;23.550;2022-08-01T02:46:28;15.05;66.49
66861;SHT31;53770;42.334;23.550;2022-08-01T02:48:57;15.07;66.43
66861;SHT31;53770;42.334;23.550;2022-08-01T02:51:25;15.07;66.35
66861;SHT31;53770;42.334;23.550;2022-08-01T02:53:54;15.04;65.74
66861;SHT31;53770;42.334;23.550;2022-08-01T02:56:22;14.90;66.29
66861;SHT31;53770;42.334;23.550;2022-08-01T02:58:51;14.85;66.56
66861;SHT31;53770;42.334;23.550;2022-08-01T03:01:19;15.01;66.40
66861;SHT31;53770;42.334;23.550;2022-08-01T03:03:48;15.07;65.21
66861;SHT31;53770;42.334;23.550;2022-08-01T03:06:17;14.85;65.38
66861;SHT31;53770;42.334;23.550;2022-08-01T03:08:44;14.70;65.90
66861;SHT31;53770;42.334;23.550;2022-08-01T03:11:12;14.69;65.78
66861;SHT31;53770;42.334;23.550;2022-08-01T03:13:40;14.69;65.88
66861;SHT31;53770;42.334;23.550;2022-08-01T03:16:08;14.59;66.09
66861;SHT31;53770;42.334;23.550;2022-08-01T03:18:37;14.60;65.64
66861;SHT31;53770;42.334;23.550;2022-08-01T03:21:06;14.64;65.62
66861;SHT31;53770;42.334;23.550;2022-08-01T03:23:36;14.64;65.24
66861;SHT31;53770;42.334;23.550;2022-08-01T03:26:05;14.46;65.50
66861;SHT31;53770;42.334;23.550;2022-08-01T03:28:32;14.33;66.36
66861;SHT31;53770;42.334;23.550;2022-08-01T03:30:59;14.50;66.63
66861;SHT31;53770;42.334;23.550;2022-08-01T03:33:26;14.53;64.82
66861;SHT31;53770;42.334;23.550;2022-08-01T03:35:54;14.53;64.90
66861;SHT31;53770;42.334;23.550;2022-08-01T03:38:25;14.53;64.48
66861;SHT31;53770;42.334;23.550;2022-08-01T03:40:56;14.50;64.40
66861;SHT31;53770;42.334;23.550;2022-08-01T03:43:29;14.52;64.64
66861;SHT31;53770;42.334;23.550;2022-08-01T03:46:02;14.46;64.42
66861;SHT31;53770;42.334;23.550;2022-08-01T03:48:31;14.36;64.41
66861;SHT31;53770;42.334;23.550;2022-08-01T03:51:02;14.39;66.18
66861;SHT31;53770;42.334;23.550;2022-08-01T03:53:32;14.55;64.48
66861;SHT31;53770;42.334;23.550;2022-08-01T03:56:00;14.63;64.13
66861;SHT31;53770;42.334;23.550;2022-08-01T03:58:28;14.64;63.56
66861;SHT31;53770;42.334;23.550;2022-08-01T04:00:57;14.71;64.04
66861;SHT31;53770;42.334;23.550;2022-08-01T04:03:24;14.76;63.37
66861;SHT31;53770;42.334;23.550;2022-08-01T04:05:51;14.80;63.34
66861;SHT31;53770;42.334;23.550;2022-08-01T04:08:17;14.91;63.58
66861;SHT31;53770;42.334;23.550;2022-08-01T04:10:45;14.87;63.01
66861;SHT31;53770;42.334;23.550;2022-08-01T04:13:12;14.90;62.81
66861;SHT31;53770;42.334;23.550;2022-08-01T04:15:39;15.00;63.64
66861;SHT31;53770;42.334;23.550;2022-08-01T04:18:06;15.14;62.94
66861;SHT31;53770;42.334;23.550;2022-08-01T04:20:33;15.19;63.05
66861;SHT31;53770;42.334;23.550;2022-08-01T04:22:59;15.34;62.32
66861;SHT31;53770;42.334;23.550;2022-08-01T04:25:32;15.42;62.43
66861;SHT31;53770;42.334;23.550;2022-08-01T04:28:01;15.45;61.52
66861;SHT31;53770;42.334;23.550;2022-08-01T04:30:32;15.43;61.85
66861;SHT31;53770;42.334;23.550;2022-08-01T04:33:01;15.53;61.73
66861;SHT31;53770;42.334;23.550;2022-08-01T04:35:32;15.59;62.11
66861;SHT31;53770;42.334;23.550;2022-08-01T04:38:01;15.65;61.70
66861;SHT31;53770;42.334;23.550;2022-08-01T04:40:29;15.69;61.62
66861;SHT31;53770;42.334;23.550;2022-08-01T04:42:56;15.79;61.11
66861;SHT31;53770;42.334;23.550;2022-08-01T04:45:24;15.82;61.95
66861;SHT31;53770;42.334;23.550;2022-08-01T04:47:51;15.74;61.95
66861;SHT31;53770;42.334;23.550;2022-08-01T04:50:19;15.70;62.54
66861;SHT31;53770;42.334;23.550;2022-08-01T04:52:47;15.77;62.68
66861;SHT31;53770;42.334;23.550;2022-08-01T04:55:14;15.86;63.00
66861;SHT31;53770;42.334;23.550;2022-08-01T04:57:44;15.97;62.82
66861;SHT31;53770;42.334;23.550;2022-08-01T05:00:12;16.03;62.32
66861;SHT31;53770;42.334;23.550;2022-08-01T05:02:40;16.14;62.64
66861;SHT31;53770;42.334;23.550;2022-08-01T05:05:07;16.25;62.40
66861;SHT31;53770;42.334;23.550;2022-08-01T05:07:35;16.33;61.77
66861;SHT31;53770;42.334;23.550;2022-08-01T05:10:03;16.36;61.14
66861;SHT31;53770;42.334;23.550;2022-08-01T05:12:30;16.33;61.00
66861;SHT31;53770;42.334;23.550;2022-08-01T05:14:58;16.42;61.70
66861;SHT31;53770;42.334;23.550;2022-08-01T05:17:25;16.53;61.05
66861;SHT31;53770;42.334;23.550;2022-08-01T05:19:53;16.62;60.51
66861;SHT31;53770;42.334;23.550;2022-08-01T05:22:19;16.68;60.19
66861;SHT31;53770;42.334;23.550;2022-08-01T05:24:47;16.76;60.42
66861;SHT31;53770;42.334;23.550;2022-08-01T05:27:14;16.80;59.99
66861;SHT31;53770;42.334;23.550;2022-08-01T05:29:41;16.76;61.71
66861;SHT31;53770;42.334;23.550;2022-08-01T05:32:07;16.86;59.74
66861;SHT31;53770;42.334;23.550;2022-08-01T05:34:35;16.87;60.22
66861;SHT31;53770;42.334;23.550;2022-08-01T05:37:03;17.02;58.61
66861;SHT31;53770;42.334;23.550;2022-08-01T05:39:30;17.03;57.94
66861;SHT31;53770;42.334;23.550;2022-08-01T05:41:57;17.03;59.03
66861;SHT31;53770;42.334;23.550;2022-08-01T05:44:23;17.14;59.49
66861;SHT31;53770;42.334;23.550;2022-08-01T05:46:50;17.20;56.20
66861;SHT31;53770;42.334;23.550;2022-08-01T05:49:17;17.27;58.30
66861;SHT31;53770;42.334;23.550;2022-08-01T05:51:44;17.27;57.26
66861;SHT31;53770;42.334;23.550;2022-08-01T05:54:12;17.30;57.69
66861;SHT31;53770;42.334;23.550;2022-08-01T05:56:39;17.45;58.29
66861;SHT31;53770;42.334;23.550;2022-08-01T05:59:05;17.56;56.16
66861;SHT31;53770;42.334;23.550;2022-08-01T06:01:32;17.64;60.27
66861;SHT31;53770;42.334;23.550;2022-08-01T06:03:59;17.68;54.02
66861;SHT31;53770;42.334;23.550;2022-08-01T06:06:26;17.73;55.19
66861;SHT31;53770;42.334;23.550;2022-08-01T06:08:53;17.85;57.45
66861;SHT31;53770;42.334;23.550;2022-08-01T06:11:21;17.93;53.07
66861;SHT31;53770;42.334;23.550;2022-08-01T06:13:48;17.89;53.02
66861;SHT31;53770;42.334;23.550;2022-08-01T06:16:14;17.90;53.06
66861;SHT31;53770;42.334;23.550;2022-08-01T06:18:41;17.83;51.61
66861;SHT31;53770;42.334;23.550;2022-08-01T06:21:08;17.87;53.83
66861;SHT31;53770;42.334;23.550;2022-08-01T06:23:35;18.04;58.04
66861;SHT31;53770;42.334;23.550;2022-08-01T06:26:02;18.14;52.42
66861;SHT31;53770;42.334;23.550;2022-08-01T06:28:30;18.20;51.32
66861;SHT31;53770;42.334;23.550;2022-08-01T06:30:57;18.23;54.71
66861;SHT31;53770;42.334;23.550;2022-08-01T06:33:25;18.33;51.78
66861;SHT31;53770;42.334;23.550;2022-08-01T06:35:53;18.36;53.65
66861;SHT31;53770;42.334;23.550;2022-08-01T06:38:20;18.38;55.20
66861;SHT31;53770;42.334;23.550;2022-08-01T06:40:47;18.41;52.19
66861;SHT31;53770;42.334;23.550;2022-08-01T06:43:14;18.34;51.41
66861;SHT31;53770;42.334;23.550;2022-08-01T06:45:42;18.47;51.37
66861;SHT31;53770;42.334;23.550;2022-08-01T06:48:09;18.48;54.33
66861;SHT31;53770;42.334;23.550;2022-08-01T06:50:35;18.58;54.06
66861;SHT31;53770;42.334;23.550;2022-08-01T06:53:02;18.75;52.77
66861;SHT31;53770;42.334;23.550;2022-08-01T06:55:29;18.89;57.48
66861;SHT31;53770;42.334;23.550;2022-08-01T06:57:56;19.06;58.07
66861;SHT31;53770;42.334;23.550;2022-08-01T07:00:24;19.12;53.35
66861;SHT31;53770;42.334;23.550;2022-08-01T07:02:54;18.99;50.48
66861;SHT31;53770;42.334;23.550;2022-08-01T07:05:22;19.05;52.05
66861;SHT31;53770;42.334;23.550;2022-08-01T07:07:49;19.19;56.72
66861;SHT31;53770;42.334;23.550;2022-08-01T07:10:16;19.28;50.38
66861;SHT31;53770;42.334;23.550;2022-08-01T07:12:43;19.31;53.64
66861;SHT31;53770;42.334;23.550;2022-08-01T07:15:10;19.35;50.12
66861;SHT31;53770;42.334;23.550;2022-08-01T07:17:38;19.16;50.34
66861;SHT31;53770;42.334;23.550;2022-08-01T07:20:08;19.12;52.02
66861;SHT31;53770;42.334;23.550;2022-08-01T07:22:35;19.33;56.73
66861;SHT31;53770;42.334;23.550;2022-08-01T07:25:03;19.47;49.90
66861;SHT31;53770;42.334;23.550;2022-08-01T07:27:31;19.49;51.28
66861;SHT31;53770;42.334;23.550;2022-08-01T07:29:58;19.61;58.61
66861;SHT31;53770;42.334;23.550;2022-08-01T07:32:25;19.71;49.65
66861;SHT31;53770;42.334;23.550;2022-08-01T07:34:54;19.70;50.08
66861;SHT31;53770;42.334;23.550;2022-08-01T07:37:22;19.62;49.42
66861;SHT31;53770;42.334;23.550;2022-08-01T07:39:49;19.54;49.56
66861;SHT31;53770;42.334;23.550;2022-08-01T07:42:16;19.50;52.10
66861;SHT31;53770;42.334;23.550;2022-08-01T07:44:43;19.68;54.96
66861;SHT31;53770;42.334;23.550;2022-08-01T07:47:10;19.86;52.20
66861;SHT31;53770;42.334;23.550;2022-08-01T07:49:37;19.92;49.57
66861;SHT31;53770;42.334;23.550;2022-08-01T07:52:05;19.98;58.42
66861;SHT31;53770;42.334;23.550;2022-08-01T07:54:33;20.16;54.20
66861;SHT31;53770;42.334;23.550;2022-08-01T07:57:00;20.22;54.39
66861;SHT31;53770;42.334;23.550;2022-08-01T07:59:27;20.25;47.88
66861;SHT31;53770;42.334;23.550;2022-08-01T08:01:54;20.19;52.19
66861;SHT31;53770;42.334;23.550;2022-08-01T08:04:21;20.36;54.39
66861;SHT31;53770;42.334;23.550;2022-08-01T08:06:48;20.57;59.28
66861;SHT31;53770;42.334;23.550;2022-08-01T08:09:14;20.54;52.39
66861;SHT31;53770;42.334;23.550;2022-08-01T08:11:43;20.64;55.87
66861;SHT31;53770;42.334;23.550;2022-08-01T08:14:10;20.85;56.59
66861;SHT31;53770;42.334;23.550;2022-08-01T08:16:37;20.85;48.07
66861;SHT31;53770;42.334;23.550;2022-08-01T08:19:04;20.73;51.53
66861;SHT31;53770;42.334;23.550;2022-08-01T08:21:31;20.71;48.99
66861;SHT31;53770;42.334;23.550;2022-08-01T08:23:58;20.44;48.69
66861;SHT31;53770;42.334;23.550;2022-08-01T08:26:43;20.48;49.35
66861;SHT31;53770;42.334;23.550;2022-08-01T08:29:10;20.65;54.82
66861;SHT31;53770;42.334;23.550;2022-08-01T08:31:36;20.87;47.56
66861;SHT31;53770;42.334;23.550;2022-08-01T08:34:04;21.05;50.02
66861;SHT31;53770;42.334;23.550;2022-08-01T08:36:30;21.30;51.77
66861;SHT31;53770;42.334;23.550;2022-08-01T08:38:58;21.61;51.91
66861;SHT31;53770;42.334;23.550;2022-08-01T08:41:25;21.60;48.10
66861;SHT31;53770;42.334;23.550;2022-08-01T08:43:54;21.68;50.65
66861;SHT31;53770;42.334;23.550;2022-08-01T08:46:23;21.80;51.36
66861;SHT31;53770;42.334;23.550;2022-08-01T08:48:52;21.98;49.26
66861;SHT31;53770;42.334;23.550;2022-08-01T08:51:19;21.94;47.32
66861;SHT31;53770;42.334;23.550;2022-08-01T08:53:46;22.07;46.64
66861;SHT31;53770;42.334;23.550;2022-08-01T08:56:14;21.84;46.15
66861;SHT31;53770;42.334;23.550;2022-08-01T08:58:43;21.45;47.36
66861;SHT31;53770;42.334;23.550;2022-08-01T09:01:11;21.39;50.38
66861;SHT31;53770;42.334;23.550;2022-08-01T09:03:39;21.49;45.84
66861;SHT31;53770;42.334;23.550;2022-08-01T09:06:06;21.42;45.72
66861;SHT31;53770;42.334;23.550;2022-08-01T09:08:33;21.46;44.96
66861;SHT31;53770;42.334;23.550;2022-08-01T09:11:00;21.26;46.50
66861;SHT31;53770;42.334;23.550;2022-08-01T09:13:26;21.13;47.20
66861;SHT31;53770;42.334;23.550;2022-08-01T09:15:54;21.43;46.99
66861;SHT31;53770;42.334;23.550;2022-08-01T09:18:33;21.74;51.67
66861;SHT31;53770;42.334;23.550;2022-08-01T09:21:12;22.12;50.37
66861;SHT31;53770;42.334;23.550;2022-08-01T09:23:41;22.45;46.16
66861;SHT31;53770;42.334;23.550;2022-08-01T09:26:10;22.56;43.34
66861;SHT31;53770;42.334;23.550;2022-08-01T09:28:37;22.55;44.37
66861;SHT31;53770;42.334;23.550;2022-08-01T09:31:09;22.46;44.65
66861;SHT31;53770;42.334;23.550;2022-08-01T09:33:54;22.90;47.20
66861;SHT31;53770;42.334;23.550;2022-08-01T09:36:22;23.27;44.01
66861;SHT31;53770;42.334;23.550;2022-08-01T09:38:50;23.59;44.53
66861;SHT31;53770;42.334;23.550;2022-08-01T09:41:28;24.09;41.71
66861;SHT31;53770;42.334;23.550;2022-08-01T09:43:55;24.17;40.76
66861;SHT31;53770;42.334;23.550;2022-08-01T09:46:22;23.90;40.87
66861;SHT31;53770;42.334;23.550;2022-08-01T09:48:58;23.63;41.76
66861;SHT31;53770;42.334;23.550;2022-08-01T09:51:29;23.66;41.63
66861;SHT31;53770;42.334;23.550;2022-08-01T09:53:56;23.65;42.24
66861;SHT31;53770;42.334;23.550;2022-08-01T09:56:24;23.90;43.10
66861;SHT31;53770;42.334;23.550;2022-08-01T09:58:56;24.45;44.27
66861;SHT31;53770;42.334;23.550;2022-08-01T10:01:23;25.38;40.41
66861;SHT31;53770;42.334;23.550;2022-08-01T10:04:08;25.80;40.03
66861;SHT31;53770;42.334;23.550;2022-08-01T10:06:36;25.88;39.18
66861;SHT31;53770;42.334;23.550;2022-08-01T10:09:03;26.18;38.77
66861;SHT31;53770;42.334;23.550;2022-08-01T10:11:31;26.43;39.10
66861;SHT31;53770;42.334;23.550;2022-08-01T10:14:00;26.74;36.44
66861;SHT31;53770;42.334;23.550;2022-08-01T10:16:28;26.65;36.55
66861;SHT31;53770;42.334;23.550;2022-08-01T10:18:56;26.70;36.53
66861;SHT31;53770;42.334;23.550;2022-08-01T10:21:27;26.96;37.41
66861;SHT31;53770;42.334;23.550;2022-08-01T10:23:54;26.81;35.88
66861;SHT31;53770;42.334;23.550;2022-08-01T10:26:25;26.29;36.73
66861;SHT31;53770;42.334;23.550;2022-08-01T10:28:53;25.72;39.07
66861;SHT31;53770;42.334;23.550;2022-08-01T10:31:20;25.93;37.11
66861;SHT31;53770;42.334;23.550;2022-08-01T10:33:48;26.54;37.61
66861;SHT31;53770;42.334;23.550;2022-08-01T10:36:17;27.51;35.93
66861;SHT31;53770;42.334;23.550;2022-08-01T10:38:46;27.40;34.82
66861;SHT31;53770;42.334;23.550;2022-08-01T10:41:14;26.36;36.62
66861;SHT31;53770;42.334;23.550;2022-08-01T10:43:42;25.92;38.00
66861;SHT31;53770;42.334;23.550;2022-08-01T10:46:09;25.44;38.72
66861;SHT31;53770;42.334;23.550;2022-08-01T10:48:43;25.15;39.63
66861;SHT31;53770;42.334;23.550;2022-08-01T10:51:12;25.70;37.87
66861;SHT31;53770;42.334;23.550;2022-08-01T10:53:48;26.88;36.16
66861;SHT31;53770;42.334;23.550;2022-08-01T10:56:16;27.57;35.02
66861;SHT31;53770;42.334;23.550;2022-08-01T10:58:44;27.87;34.53
66861;SHT31;53770;42.334;23.550;2022-08-01T11:01:17;29.27;32.78
66861;SHT31;53770;42.334;23.550;2022-08-01T11:03:46;30.32;30.24
66861;SHT31;53770;42.334;23.550;2022-08-01T11:06:25;31.89;30.34
66861;SHT31;53770;42.334;23.550;2022-08-01T11:08:55;34.17;26.16
66861;SHT31;53770;42.334;23.550;2022-08-01T11:11:22;34.49;25.62
66861;SHT31;53770;42.334;23.550;2022-08-01T11:14:02;34.58;26.34
66861;SHT31;53770;42.334;23.550;2022-08-01T11:16:33;34.37;25.64
66861;SHT31;53770;42.334;23.550;2022-08-01T11:19:00;34.20;26.77
66861;SHT31;53770;42.334;23.550;2022-08-01T11:21:57;32.35;28.18
66861;SHT31;53770;42.334;23.550;2022-08-01T11:24:56;32.12;28.73
66861;SHT31;53770;42.334;23.550;2022-08-01T11:27:25;33.30;26.81
66861;SHT31;53770;42.334;23.550;2022-08-01T11:30:24;33.65;26.32
66861;SHT31;53770;42.334;23.550;2022-08-01T11:32:53;33.53;26.71
66861;SHT31;53770;42.334;23.550;2022-08-01T11:35:21;33.83;26.28
66861;SHT31;53770;42.334;23.550;2022-08-01T11:37:49;33.86;25.43
66861;SHT31;53770;42.334;23.550;2022-08-01T11:40:21;34.68;24.63
66861;SHT31;53770;42.334;23.550;2022-08-01T11:42:48;35.50;24.26
66861;SHT31;53770;42.334;23.550;2022-08-01T11:45:16;35.64;24.23
66861;SHT31;53770;42.334;23.550;2022-08-01T11:47:44;35.41;23.60
66861;SHT31;53770;42.334;23.550;2022-08-01T11:50:34;33.21;26.57
66861;SHT31;53770;42.334;23.550;2022-08-01T11:53:03;32.41;27.31
66861;SHT31;53770;42.334;23.550;2022-08-01T11:55:32;33.30;28.52
66861;SHT31;53770;42.334;23.550;2022-08-01T11:58:00;35.10;24.44
66861;SHT31;53770;42.334;23.550;2022-08-01T12:00:27;34.22;25.48
66861;SHT31;53770;42.334;23.550;2022-08-01T12:03:00;33.29;25.90
66861;SHT31;53770;42.334;23.550;2022-08-01T12:05:29;34.42;25.15
66861;SHT31;53770;42.334;23.550;2022-08-01T12:07:59;35.77;24.32
66861;SHT31;53770;42.334;23.550;2022-08-01T12:10:28;35.57;24.26
66861;SHT31;53770;42.334;23.550;2022-08-01T12:13:01;34.61;25.09
66861;SHT31;53770;42.334;23.550;2022-08-01T12:15:30;33.25;26.91
66861;SHT31;53770;42.334;23.550;2022-08-01T12:17:59;33.76;26.27
66861;SHT31;53770;42.334;23.550;2022-08-01T12:20:29;34.51;25.42
66861;SHT31;53770;42.334;23.550;2022-08-01T12:22:57;35.74;23.84
66861;SHT31;53770;42.334;23.550;2022-08-01T12:25:24;36.77;22.83
66861;SHT31;53770;42.334;23.550;2022-08-01T12:27:51;37.81;21.33
66861;SHT31;53770;42.334;23.550;2022-08-01T12:30:20;36.47;22.85
66861;SHT31;53770;42.334;23.550;2022-08-01T12:32:49;36.85;24.52
66861;SHT31;53770;42.334;23.550;2022-08-01T12:35:17;37.53;23.95
66861;SHT31;53770;42.334;23.550;2022-08-01T12:37:47;39.25;21.80
66861;SHT31;53770;42.334;23.550;2022-08-01T12:40:16;41.26;20.35
66861;SHT31;53770;42.334;23.550;2022-08-01T12:42:45;40.98;19.29
66861;SHT31;53770;42.334;23.550;2022-08-01T12:45:13;40.58;19.44
66861;SHT31;53770;42.334;23.550;2022-08-01T12:47:42;39.37;21.07
66861;SHT31;53770;42.334;23.550;2022-08-01T12:50:11;37.05;22.87
66861;SHT31;53770;42.334;23.550;2022-08-01T12:52:39;34.44;24.81
66861;SHT31;53770;42.334;23.550;2022-08-01T12:55:11;33.00;27.53
66861;SHT31;53770;42.334;23.550;2022-08-01T12:57:40;34.00;26.92
66861;SHT31;53770;42.334;23.550;2022-08-01T13:00:13;34.68;25.45
66861;SHT31;53770;42.334;23.550;2022-08-01T13:02:42;35.14;24.70
66861;SHT31;53770;42.334;23.550;2022-08-01T13:05:10;36.68;24.89
66861;SHT31;53770;42.334;23.550;2022-08-01T13:07:39;37.66;22.05
66861;SHT31;53770;42.334;23.550;2022-08-01T13:10:07;37.05;22.78
66861;SHT31;53770;42.334;23.550;2022-08-01T13:12:35;35.50;24.71
66861;SHT31;53770;42.334;23.550;2022-08-01T13:15:27;36.16;24.76
66861;SHT31;53770;42.334;23.550;2022-08-01T13:17:59;37.08;24.67
66861;SHT31;53770;42.334;23.550;2022-08-01T13:20:29;38.39;22.15
66861;SHT31;53770;42.334;23.550;2022-08-01T13:23:10;39.04;21.86
66861;SHT31;53770;42.334;23.550;2022-08-01T13:25:50;39.90;21.74
66861;SHT31;53770;42.334;23.550;2022-08-01T13:28:19;40.29;20.19
66861;SHT31;53770;42.334;23.550;2022-08-01T13:30:54;39.40;20.73
66861;SHT31;53770;42.334;23.550;2022-08-01T13:33:24;39.57;22.04
66861;SHT31;53770;42.334;23.550;2022-08-01T13:35:51;39.79;22.07
66861;SHT31;53770;42.334;23.550;2022-08-01T13:38:19;39.51;21.56
66861;SHT31;53770;42.334;23.550;2022-08-01T13:41:06;39.25;21.53
66861;SHT31;53770;42.334;23.550;2022-08-01T13:43:34;39.76;20.86
66861;SHT31;53770;42.334;23.550;2022-08-01T13:46:01;40.15;22.21
66861;SHT31;53770;42.334;23.550;2022-08-01T13:48:31;40.90;21.53
66861;SHT31;53770;42.334;23.550;2022-08-01T13:50:59;41.49;19.71
66861;SHT31;53770;42.334;23.550;2022-08-01T13:53:26;40.61;19.90
66861;SHT31;53770;42.334;23.550;2022-08-01T13:55:54;39.50;20.94
66861;SHT31;53770;42.334;23.550;2022-08-01T13:58:20;39.04;21.58
66861;SHT31;53770;42.334;23.550;2022-08-01T14:00:47;37.57;23.26
66861;SHT31;53770;42.334;23.550;2022-08-01T14:03:14;37.18;24.16
66861;SHT31;53770;42.334;23.550;2022-08-01T14:05:43;37.69;23.45
66861;SHT31;53770;42.334;23.550;2022-08-01T14:08:10;37.60;22.78
66861;SHT31;53770;42.334;23.550;2022-08-01T14:10:37;36.80;23.80
66861;SHT31;53770;42.334;23.550;2022-08-01T14:13:04;34.87;25.01
66861;SHT31;53770;42.334;23.550;2022-08-01T14:15:32;33.66;27.16
66861;SHT31;53770;42.334;23.550;2022-08-01T14:17:59;33.89;28.53
66861;SHT31;53770;42.334;23.550;2022-08-01T14:20:26;34.59;26.71
66861;SHT31;53770;42.334;23.550;2022-08-01T14:22:54;34.72;27.66
66861;SHT31;53770;42.334;23.550;2022-08-01T14:25:21;33.84;28.15
66861;SHT31;53770;42.334;23.550;2022-08-01T14:27:47;32.18;28.78
66861;SHT31;53770;42.334;23.550;2022-08-01T14:30:14;30.62;32.15
66861;SHT31;53770;42.334;23.550;2022-08-01T14:32:41;29.89;31.48
66861;SHT31;53770;42.334;23.550;2022-08-01T14:35:08;29.52;35.06
66861;SHT31;53770;42.334;23.550;2022-08-01T14:37:35;29.46;34.22
66861;SHT31;53770;42.334;23.550;2022-08-01T14:40:04;29.79;33.53
66861;SHT31;53770;42.334;23.550;2022-08-01T14:42:34;29.72;33.33
66861;SHT31;53770;42.334;23.550;2022-08-01T14:45:02;29.41;34.48
66861;SHT31;53770;42.334;23.550;2022-08-01T14:47:29;29.25;37.25
66861;SHT31;53770;42.334;23.550;2022-08-01T14:49:56;29.18;36.19
66861;SHT31;53770;42.334;23.550;2022-08-01T14:52:22;28.84;34.91
66861;SHT31;53770;42.334;23.550;2022-08-01T14:54:49;28.52;36.13
66861;SHT31;53770;42.334;23.550;2022-08-01T14:57:17;28.29;37.48
66861;SHT31;53770;42.334;23.550;2022-08-01T14:59:44;27.88;37.56
66861;SHT31;53770;42.334;23.550;2022-08-01T15:02:11;27.80;37.14
66861;SHT31;53770;42.334;23.550;2022-08-01T15:04:42;27.47;38.90
66861;SHT31;53770;42.334;23.550;2022-08-01T15:07:09;27.26;39.14
66861;SHT31;53770;42.334;23.550;2022-08-01T15:09:36;27.11;39.74
66861;SHT31;53770;42.334;23.550;2022-08-01T15:12:03;26.90;39.21
66861;SHT31;53770;42.334;23.550;2022-08-01T15:14:31;26.77;40.73
66861;SHT31;53770;42.334;23.550;2022-08-01T15:17:17;26.64;39.90
66861;SHT31;53770;42.334;23.550;2022-08-01T15:19:44;26.50;39.48
66861;SHT31;53770;42.334;23.550;2022-08-01T15:22:12;26.33;39.62
66861;SHT31;53770;42.334;23.550;2022-08-01T15:24:39;26.25;40.14
66861;SHT31;53770;42.334;23.550;2022-08-01T15:27:05;26.13;40.28